createdAt,value
2018-03-02T00:00:46.864Z,19.63
2018-03-02T00:02:53.036Z,19.72
2018-03-02T00:05:01.275Z,19.60
2018-03-02T00:07:07.200Z,19.56
2018-03-02T00:09:11.917Z,19.71
2018-03-02T00:11:18.344Z,19.56
2018-03-02T00:13:24.493Z,19.72
2018-03-02T00:15:30.982Z,19.66
2018-03-02T00:17:37.183Z,19.74
2018-03-02T00:19:42.545Z,19.72
2018-03-02T00:21:48.641Z,19.73
2018-03-02T00:23:54.756Z,19.73
2018-03-02T00:26:01.849Z,19.79
2018-03-02T00:28:07.761Z,19.80
2018-03-02T00:30:14.183Z,19.66
2018-03-02T00:32:20.004Z,19.58
2018-03-02T00:34:25.664Z,19.59
2018-03-02T00:36:43.907Z,19.58
2018-03-02T00:38:49.683Z,19.60
2018-03-02T00:40:55.168Z,19.65
2018-03-02T00:43:01.617Z,19.68
2018-03-02T00:45:08.032Z,19.62
2018-03-02T00:47:13.952Z,19.78
2018-03-02T00:49:19.807Z,19.71
2018-03-02T00:51:26.210Z,19.62
2018-03-02T00:53:31.999Z,19.49
2018-03-02T00:55:38.167Z,19.46
2018-03-02T00:57:44.572Z,19.30
2018-03-02T00:59:50.739Z,19.33
2018-03-02T01:01:56.935Z,19.22
2018-03-02T01:04:02.883Z,19.19
2018-03-02T01:06:09.297Z,19.15
2018-03-02T01:08:16.113Z,18.98
2018-03-02T01:10:22.642Z,19.01
2018-03-02T01:12:30.068Z,19.00
2018-03-02T01:14:38.679Z,19.03
2018-03-02T01:16:46.297Z,18.91
2018-03-02T01:18:51.800Z,18.84
2018-03-02T01:20:58.833Z,18.93
2018-03-02T01:23:04.903Z,18.91
2018-03-02T01:25:11.300Z,18.91
2018-03-02T01:27:17.207Z,18.81
2018-03-02T01:29:23.314Z,18.84
2018-03-02T01:31:29.395Z,18.85
2018-03-02T01:33:36.135Z,18.88
2018-03-02T01:35:42.903Z,18.79
2018-03-02T01:37:49.094Z,18.69
2018-03-02T01:39:55.178Z,18.74
2018-03-02T01:42:02.463Z,18.77
2018-03-02T01:44:08.610Z,18.73
2018-03-02T01:46:14.842Z,18.76
2018-03-02T01:48:20.736Z,18.74
2018-03-02T01:50:26.841Z,18.71
2018-03-02T01:52:33.376Z,18.77
2018-03-02T01:54:39.396Z,18.60
2018-03-02T01:56:46.118Z,18.59
2018-03-02T01:58:53.001Z,18.68
2018-03-02T02:01:00.086Z,18.60
2018-03-02T02:03:06.604Z,18.65
2018-03-02T02:05:12.611Z,18.55
2018-03-02T02:07:18.609Z,18.67
2018-03-02T02:09:25.120Z,18.56
2018-03-02T02:11:33.206Z,18.54
2018-03-02T02:13:39.312Z,18.59
2018-03-02T02:15:45.295Z,18.38
2018-03-02T02:17:51.393Z,18.61
2018-03-02T02:19:57.552Z,18.53
2018-03-02T02:22:06.444Z,18.49
2018-03-02T02:24:12.832Z,18.60
2018-03-02T02:26:23.540Z,18.60
2018-03-02T02:28:29.508Z,18.46
2018-03-02T02:30:35.848Z,18.42
2018-03-02T02:32:41.923Z,18.48
2018-03-02T02:34:48.331Z,18.39
2018-03-02T02:36:54.166Z,18.30
2018-03-02T02:39:00.732Z,18.48
2018-03-02T02:41:07.081Z,18.51
2018-03-02T02:43:12.908Z,18.53
2018-03-02T02:45:18.867Z,18.52
2018-03-02T02:47:24.578Z,18.48
2018-03-02T02:49:30.875Z,18.46
2018-03-02T02:51:36.819Z,18.43
2018-03-02T02:53:42.924Z,18.43
2018-03-02T02:55:48.718Z,18.43
2018-03-02T02:57:54.824Z,18.42
2018-03-02T03:00:02.687Z,18.39
2018-03-02T03:02:08.724Z,18.43
2018-03-02T03:04:14.862Z,18.44
2018-03-02T03:08:30.708Z,18.48
2018-03-02T03:10:35.993Z,18.41
2018-03-02T03:12:42.200Z,18.46
2018-03-02T03:14:47.763Z,18.47
2018-03-02T03:16:53.649Z,18.49
2018-03-02T03:18:59.355Z,18.51
2018-03-02T03:21:05.576Z,18.43
2018-03-02T03:23:11.589Z,18.48
2018-03-02T03:25:16.790Z,18.46
2018-03-02T03:27:23.157Z,18.49
2018-03-02T03:29:29.041Z,18.39
2018-03-02T03:31:35.000Z,18.48
2018-03-02T03:33:41.327Z,18.62
2018-03-02T03:35:48.185Z,18.56
2018-03-02T03:37:53.544Z,18.51
2018-03-02T03:40:00.307Z,18.50
2018-03-02T03:42:05.611Z,18.54
2018-03-02T03:44:11.683Z,18.46
2018-03-02T03:46:17.396Z,18.55
2018-03-02T03:48:23.140Z,18.39
2018-03-02T03:50:29.531Z,18.45
2018-03-02T03:52:35.386Z,18.32
2018-03-02T03:54:42.694Z,18.42
2018-03-02T03:56:48.491Z,18.51
2018-03-02T03:58:54.595Z,18.49
2018-03-02T04:01:00.316Z,18.42
2018-03-02T04:03:06.877Z,18.42
2018-03-02T04:05:12.850Z,18.33
2018-03-02T04:07:18.751Z,18.33
2018-03-02T04:09:24.852Z,18.43
2018-03-02T04:11:30.792Z,18.44
2018-03-02T04:13:36.941Z,18.40
2018-03-02T04:15:42.788Z,18.50
2018-03-02T04:17:48.915Z,18.26
2018-03-02T04:19:58.938Z,18.25
2018-03-02T04:22:04.355Z,18.41
2018-03-02T04:24:10.452Z,18.33
2018-03-02T04:26:16.091Z,18.38
2018-03-02T04:28:27.924Z,18.38
2018-03-02T04:30:34.308Z,18.45
2018-03-02T04:32:40.693Z,18.56
2018-03-02T04:34:46.991Z,18.52
2018-03-02T04:36:53.040Z,18.45
2018-03-02T04:39:01.056Z,18.55
2018-03-02T04:41:06.875Z,18.59
2018-03-02T04:43:12.787Z,18.57
2018-03-02T04:45:19.177Z,18.58
2018-03-02T04:47:25.827Z,18.69
2018-03-02T04:49:31.728Z,18.59
2018-03-02T04:51:37.654Z,18.64
2018-03-02T04:53:44.137Z,18.70
2018-03-02T04:55:50.561Z,18.63
2018-03-02T04:57:56.137Z,18.65
2018-03-02T05:00:03.424Z,18.64
2018-03-02T05:02:09.028Z,18.77
2018-03-02T05:04:14.832Z,18.56
2018-03-02T05:06:20.665Z,18.59
2018-03-02T05:08:25.883Z,18.55
2018-03-02T05:10:31.553Z,18.65
2018-03-02T05:12:36.928Z,18.54
2018-03-02T05:14:49.674Z,18.65
2018-03-02T05:16:55.884Z,18.55
2018-03-02T05:19:01.819Z,18.65
2018-03-02T05:21:07.703Z,18.75
2018-03-02T05:23:13.926Z,18.67
2018-03-02T05:25:19.308Z,18.51
2018-03-02T05:27:24.978Z,18.57
2018-03-02T05:29:30.819Z,18.46
2018-03-02T05:31:36.980Z,18.54
2018-03-02T05:33:43.040Z,18.49
2018-03-02T05:35:49.556Z,18.43
2018-03-02T05:37:55.619Z,18.42
2018-03-02T05:40:02.179Z,18.55
2018-03-02T05:42:07.867Z,18.58
2018-03-02T05:44:13.804Z,18.57
2018-03-02T05:46:24.333Z,18.60
2018-03-02T05:48:33.300Z,18.57
2018-03-02T05:50:39.381Z,18.65
2018-03-02T05:52:45.822Z,18.52
2018-03-02T05:55:01.957Z,18.47
2018-03-02T05:57:07.813Z,18.50
2018-03-02T05:59:13.108Z,18.57
2018-03-02T06:01:19.368Z,18.48
2018-03-02T06:03:24.640Z,18.52
2018-03-02T06:05:30.294Z,18.65
2018-03-02T06:07:35.716Z,18.61
2018-03-02T06:09:42.680Z,18.59
2018-03-02T06:11:48.164Z,18.69
2018-03-02T06:13:54.183Z,18.69
2018-03-02T06:16:00.155Z,18.74
2018-03-02T06:18:05.893Z,18.77
2018-03-02T06:20:11.236Z,18.58
2018-03-02T06:22:17.599Z,18.62
2018-03-02T06:24:24.333Z,18.70
2018-03-02T06:26:29.671Z,18.66
2018-03-02T06:28:35.015Z,18.55
2018-03-02T06:30:40.638Z,18.47
2018-03-02T06:32:46.514Z,18.56
2018-03-02T06:34:52.162Z,18.51
2018-03-02T06:36:59.345Z,18.43
2018-03-02T06:39:05.271Z,18.60
2018-03-02T06:41:10.827Z,18.62
2018-03-02T06:43:17.677Z,18.64
2018-03-02T06:45:23.387Z,18.59
2018-03-02T06:47:28.614Z,18.76
2018-03-02T06:49:35.190Z,18.81
2018-03-02T06:51:40.910Z,18.77
2018-03-02T06:53:46.291Z,18.89
2018-03-02T06:55:51.625Z,18.84
2018-03-02T06:57:57.745Z,18.93
2018-03-02T07:00:03.385Z,18.98
2018-03-02T07:02:09.839Z,19.04
2018-03-02T07:04:15.889Z,18.98
2018-03-02T07:06:22.305Z,19.02
2018-03-02T07:08:28.464Z,19.07
2018-03-02T07:10:33.833Z,19.11
2018-03-02T07:12:39.521Z,19.14
2018-03-02T07:14:44.860Z,19.20
2018-03-02T07:16:50.182Z,19.21
2018-03-02T07:18:55.923Z,19.23
2018-03-02T07:21:02.395Z,19.34
2018-03-02T07:23:08.340Z,19.38
2018-03-02T07:25:14.657Z,19.49
2018-03-02T07:27:20.869Z,19.50
2018-03-02T07:29:26.948Z,19.55
2018-03-02T07:31:33.754Z,19.68
2018-03-02T07:33:40.064Z,19.51
2018-03-02T07:35:45.631Z,19.55
2018-03-02T07:37:51.719Z,19.64
2018-03-02T07:39:58.791Z,19.54
2018-03-02T07:42:04.816Z,19.59
2018-03-02T07:44:10.763Z,19.62
2018-03-02T07:46:16.177Z,19.64
2018-03-02T07:48:21.994Z,19.55
2018-03-02T07:50:28.082Z,19.71
2018-03-02T07:52:34.429Z,19.71
2018-03-02T07:54:40.453Z,19.70
2018-03-02T07:56:46.397Z,19.88
2018-03-02T07:58:51.714Z,19.80
2018-03-02T08:00:58.096Z,19.95
2018-03-02T08:03:03.793Z,19.85
2018-03-02T08:05:09.080Z,19.92
2018-03-02T08:07:14.903Z,20.09
2018-03-02T08:09:26.634Z,20.05
2018-03-02T08:11:34.260Z,20.02
2018-03-02T08:13:40.441Z,20.12
2018-03-02T08:15:46.921Z,20.16
2018-03-02T08:17:52.240Z,20.11
2018-03-02T08:19:58.225Z,20.22
2018-03-02T08:22:06.167Z,20.11
2018-03-02T08:24:11.538Z,20.12
2018-03-02T08:26:16.836Z,20.10
2018-03-02T08:28:22.379Z,20.19
2018-03-02T08:30:27.906Z,20.22
2018-03-02T08:32:33.176Z,20.25
2018-03-02T08:34:38.850Z,20.27
2018-03-02T08:36:44.140Z,20.27
2018-03-02T08:38:49.571Z,20.30
2018-03-02T08:40:55.900Z,20.31
2018-03-02T08:43:01.225Z,20.33
2018-03-02T08:45:06.629Z,20.28
2018-03-02T08:47:12.235Z,20.29
2018-03-02T08:49:18.387Z,20.33
2018-03-02T08:51:23.704Z,20.41
2018-03-02T08:53:30.449Z,20.41
2018-03-02T08:57:45.257Z,20.48
2018-03-02T08:59:50.604Z,20.44
2018-03-02T09:01:56.173Z,20.49
2018-03-02T09:04:02.816Z,20.55
2018-03-02T09:06:08.090Z,20.46
2018-03-02T09:08:13.661Z,20.49
2018-03-02T09:10:18.918Z,20.50
2018-03-02T09:12:24.275Z,20.55
2018-03-02T09:14:30.120Z,20.54
2018-03-02T09:16:35.357Z,20.63
2018-03-02T09:18:40.783Z,20.53
2018-03-02T09:20:46.591Z,20.63
2018-03-02T09:22:51.926Z,20.49
2018-03-02T09:24:57.199Z,20.52
2018-03-02T09:27:06.639Z,20.48
2018-03-02T09:29:11.876Z,20.52
2018-03-02T09:31:17.624Z,20.38
2018-03-02T09:33:23.234Z,20.50
2018-03-02T09:35:28.822Z,20.48
2018-03-02T09:37:34.091Z,20.55
2018-03-02T09:39:39.692Z,20.53
2018-03-02T09:41:45.460Z,20.61
2018-03-02T09:43:51.316Z,20.61
2018-03-02T09:45:56.736Z,20.56
2018-03-02T09:48:03.145Z,20.67
2018-03-02T09:50:08.464Z,20.58
2018-03-02T09:52:13.740Z,20.54
2018-03-02T09:54:19.872Z,20.48
2018-03-02T09:56:25.174Z,20.60
2018-03-02T09:58:30.960Z,20.45
2018-03-02T10:00:36.592Z,20.57
2018-03-02T10:02:45.294Z,20.53
2018-03-02T10:04:52.436Z,20.74
2018-03-02T10:06:58.199Z,20.62
2018-03-02T10:09:04.390Z,20.65
2018-03-02T10:11:09.791Z,20.63
2018-03-02T10:13:15.526Z,20.79
2018-03-02T10:15:20.768Z,20.74
2018-03-02T10:17:26.968Z,20.88
2018-03-02T10:19:34.504Z,20.93
2018-03-02T10:21:40.014Z,20.77
2018-03-02T10:23:45.401Z,20.90
2018-03-02T10:25:51.271Z,20.93
2018-03-02T10:27:57.403Z,20.98
2018-03-02T10:30:04.341Z,20.95
2018-03-02T10:32:09.937Z,20.97
2018-03-02T10:34:15.725Z,20.90
2018-03-02T10:36:21.254Z,20.92
2018-03-02T10:38:26.810Z,20.30
2018-03-02T10:40:32.111Z,20.69
2018-03-02T10:42:37.347Z,20.79
2018-03-02T10:44:43.020Z,20.82
2018-03-02T10:46:48.997Z,20.88
2018-03-02T10:48:54.694Z,20.78
2018-03-02T10:53:10.276Z,20.93
2018-03-02T10:55:15.613Z,20.94
2018-03-02T10:57:21.219Z,21.07
2018-03-02T10:59:26.547Z,21.08
2018-03-02T11:01:32.216Z,20.87
2018-03-02T11:03:39.961Z,20.98
2018-03-02T11:05:46.676Z,21.19
2018-03-02T11:07:52.616Z,21.11
2018-03-02T11:09:57.957Z,21.06
2018-03-02T11:12:04.897Z,21.16
2018-03-02T11:14:10.513Z,21.23
2018-03-02T11:18:25.839Z,21.33
2018-03-02T11:20:31.864Z,21.37
2018-03-02T11:22:37.471Z,21.06
2018-03-02T11:24:42.861Z,21.04
2018-03-02T11:26:48.300Z,20.67
2018-03-02T11:28:54.167Z,20.64
2018-03-02T11:31:00.417Z,20.63
2018-03-02T11:33:05.793Z,20.53
2018-03-02T11:35:17.704Z,20.61
2018-03-02T11:37:28.827Z,20.59
2018-03-02T11:39:34.318Z,20.71
2018-03-02T11:41:39.898Z,20.77
2018-03-02T11:43:45.272Z,20.59
2018-03-02T11:45:50.600Z,20.67
2018-03-02T11:47:56.293Z,20.74
2018-03-02T11:50:01.700Z,20.78
2018-03-02T11:52:06.944Z,20.74
2018-03-02T11:54:13.167Z,20.63
2018-03-02T11:56:18.458Z,20.63
2018-03-02T11:58:23.802Z,20.71
2018-03-02T12:00:29.399Z,20.52
2018-03-02T12:02:34.906Z,20.61
2018-03-02T12:04:40.404Z,20.42
2018-03-02T12:06:45.973Z,20.63
2018-03-02T12:08:51.593Z,20.67
2018-03-02T12:10:57.704Z,20.64
2018-03-02T12:13:03.199Z,20.60
2018-03-02T12:15:08.760Z,20.67
2018-03-02T12:17:14.443Z,20.58
2018-03-02T12:19:20.321Z,20.60
2018-03-02T12:21:25.947Z,20.64
2018-03-02T12:23:31.280Z,20.69
2018-03-02T12:25:36.611Z,20.69
2018-03-02T12:27:42.160Z,20.71
2018-03-02T12:29:48.424Z,20.77
2018-03-02T12:31:53.841Z,20.78
2018-03-02T12:34:01.312Z,20.84
2018-03-02T12:36:06.591Z,21.11
2018-03-02T12:38:12.621Z,21.27
2018-03-02T12:40:18.309Z,21.32
2018-03-02T12:42:24.744Z,21.74
2018-03-02T12:44:30.172Z,22.18
2018-03-02T12:46:36.340Z,22.19
2018-03-02T12:48:44.768Z,22.01
2018-03-02T12:50:52.018Z,21.99
2018-03-02T12:52:57.737Z,22.24
2018-03-02T12:55:03.019Z,22.39
2018-03-02T12:57:08.348Z,22.38
2018-03-02T12:59:14.744Z,22.30
2018-03-02T13:01:20.231Z,22.31
2018-03-02T13:03:25.669Z,22.40
2018-03-02T13:05:31.359Z,22.57
2018-03-02T13:07:36.724Z,22.65
2018-03-02T13:09:42.302Z,22.62
2018-03-02T13:11:47.972Z,22.63
2018-03-02T13:13:53.323Z,22.63
2018-03-02T13:15:58.535Z,22.63
2018-03-02T13:18:04.046Z,22.64
2018-03-02T13:20:13.758Z,22.67
2018-03-02T13:22:28.033Z,22.72
2018-03-02T13:24:33.645Z,22.72
2018-03-02T13:26:47.364Z,22.73
2018-03-02T13:28:54.047Z,22.83
2018-03-02T13:31:01.300Z,22.83
2018-03-02T13:33:15.137Z,22.86
2018-03-02T13:35:20.477Z,22.95
2018-03-02T13:37:26.113Z,22.97
2018-03-02T13:39:40.016Z,22.92
2018-03-02T13:41:55.459Z,22.97
2018-03-02T13:44:01.099Z,23.04
2018-03-02T13:46:07.453Z,23.07
2018-03-02T13:50:25.283Z,23.12
2018-03-02T13:52:30.944Z,23.12
2018-03-02T13:54:36.271Z,23.12
2018-03-02T13:56:50.392Z,23.14
2018-03-02T13:58:55.982Z,23.19
2018-03-02T14:01:01.435Z,23.15
2018-03-02T14:05:18.085Z,23.14
2018-03-02T14:07:23.505Z,23.18
2018-03-02T14:09:29.521Z,23.17
2018-03-02T14:11:34.858Z,23.20
2018-03-02T14:13:40.283Z,23.24
2018-03-02T14:15:46.202Z,23.32
2018-03-02T14:17:51.711Z,23.26
2018-03-02T14:19:57.092Z,23.26
2018-03-02T14:22:04.791Z,23.29
2018-03-02T14:24:10.278Z,23.29
2018-03-02T14:26:16.188Z,23.30
2018-03-02T14:28:22.328Z,23.32
2018-03-02T14:30:28.428Z,23.29
2018-03-02T14:32:34.471Z,23.33
2018-03-02T14:34:43.152Z,23.31
2018-03-02T14:36:48.913Z,23.32
2018-03-02T14:38:54.435Z,23.37
2018-03-02T14:41:00.241Z,23.31
2018-03-02T14:43:06.472Z,23.28
2018-03-02T14:45:12.351Z,23.30
2018-03-02T14:47:18.099Z,23.32
2018-03-02T14:49:23.404Z,23.29
2018-03-02T14:51:28.828Z,23.30
2018-03-02T14:53:34.407Z,23.34
2018-03-02T14:55:39.762Z,23.33
2018-03-02T15:00:01.351Z,23.28
2018-03-02T15:02:06.710Z,23.26
2018-03-02T15:04:12.169Z,23.23
2018-03-02T15:06:18.438Z,23.13
2018-03-02T15:08:23.800Z,23.00
2018-03-02T15:10:29.485Z,23.01
2018-03-02T15:12:35.801Z,22.98
2018-03-02T15:14:41.475Z,22.93
2018-03-02T15:16:46.924Z,22.93
2018-03-02T15:18:53.455Z,22.95
2018-03-02T15:20:59.890Z,22.93
2018-03-02T15:23:05.436Z,22.91
2018-03-02T15:25:12.150Z,22.75
2018-03-02T15:27:17.472Z,22.60
2018-03-02T15:29:22.848Z,22.58
2018-03-02T15:31:29.355Z,22.67
2018-03-02T15:33:34.684Z,22.66
2018-03-02T15:35:40.096Z,22.63
2018-03-02T15:37:45.920Z,22.61
2018-03-02T15:41:15.268Z,22.64
2018-03-02T15:43:21.284Z,22.56
2018-03-02T15:45:27.211Z,22.56
2018-03-02T15:47:33.528Z,22.45
2018-03-02T15:49:40.056Z,22.35
2018-03-02T15:51:45.383Z,22.27
2018-03-02T15:53:50.764Z,22.18
2018-03-02T15:55:57.251Z,22.15
2018-03-02T15:58:03.644Z,22.10
2018-03-02T16:00:09.010Z,22.07
2018-03-02T16:02:14.704Z,22.03
2018-03-02T16:04:20.306Z,21.97
2018-03-02T16:06:25.703Z,21.92
2018-03-02T16:08:31.297Z,21.78
2018-03-02T16:10:36.656Z,21.73
2018-03-02T16:12:42.190Z,21.64
2018-03-02T16:14:47.878Z,21.56
2018-03-02T16:16:53.218Z,21.52
2018-03-02T16:18:59.703Z,21.41
2018-03-02T16:21:05.617Z,21.37
2018-03-02T16:23:12.602Z,21.30
2018-03-02T16:51:38.412Z,20.78
2018-03-02T16:53:44.207Z,20.68
2018-03-02T16:55:50.473Z,20.54
2018-03-02T16:57:56.120Z,20.51
2018-03-02T17:00:01.520Z,20.40
2018-03-02T17:02:07.724Z,20.32
2018-03-02T17:04:13.354Z,20.31
2018-03-02T17:06:18.756Z,20.28
2018-03-02T17:08:24.121Z,20.20
2018-03-02T17:10:29.768Z,20.13
2018-03-02T17:12:35.121Z,20.05
2018-03-02T17:14:40.735Z,20.00
2018-03-02T17:16:47.258Z,20.02
2018-03-02T17:18:52.505Z,19.93
2018-03-02T17:20:59.309Z,19.89
2018-03-02T17:23:05.311Z,19.84
2018-03-02T17:25:10.696Z,19.79
2018-03-02T17:27:16.023Z,19.73
2018-03-02T17:29:21.700Z,19.75
2018-03-02T17:31:28.052Z,19.71
2018-03-02T17:33:33.327Z,19.64
2018-03-02T17:35:39.039Z,19.59
2018-03-02T17:37:44.421Z,19.68
2018-03-02T17:39:50.027Z,19.54
2018-03-02T17:41:55.950Z,19.56
2018-03-02T17:44:02.467Z,19.51
2018-03-02T17:46:07.864Z,19.58
2018-03-02T17:48:13.822Z,19.54
2018-03-02T17:50:20.832Z,19.44
2018-03-02T17:52:26.298Z,19.48
2018-03-02T17:54:35.044Z,19.39
2018-03-02T17:56:40.960Z,19.38
2018-03-02T17:58:46.263Z,19.27
2018-03-02T18:00:52.070Z,19.19
2018-03-02T18:02:59.229Z,19.12
2018-03-02T18:05:04.531Z,19.21
2018-03-02T18:07:10.733Z,19.22
2018-03-02T18:09:16.016Z,19.08
2018-03-02T18:11:21.309Z,19.07
2018-03-02T18:13:26.923Z,19.14
2018-03-02T18:15:32.337Z,19.11
2018-03-02T18:17:37.866Z,19.07
2018-03-02T18:19:43.600Z,19.04
2018-03-02T18:21:48.981Z,19.06
2018-03-02T18:23:54.326Z,19.16
2018-03-02T18:26:00.118Z,19.06
2018-03-02T18:28:05.589Z,19.06
2018-03-02T18:30:10.964Z,19.09
2018-03-02T18:32:16.600Z,19.00
2018-03-02T18:34:22.492Z,18.99
2018-03-02T18:36:27.902Z,18.98
2018-03-02T18:38:35.530Z,18.90
2018-03-02T18:40:41.337Z,18.82
2018-03-02T18:42:46.672Z,18.85
2018-03-02T18:44:52.418Z,18.99
2018-03-02T18:46:57.695Z,18.95
2018-03-02T18:49:04.165Z,19.04
2018-03-02T18:51:10.005Z,19.04
2018-03-02T18:53:16.947Z,19.00
2018-03-02T18:55:28.767Z,18.95
2018-03-02T18:57:34.450Z,18.93
2018-03-02T18:59:39.816Z,18.97
2018-03-02T19:01:45.255Z,18.96
2018-03-02T19:03:50.898Z,18.95
2018-03-02T19:05:56.919Z,18.92
2018-03-02T19:08:07.334Z,18.91
2018-03-02T19:10:13.505Z,18.87
2018-03-02T19:12:19.621Z,18.89
2018-03-02T19:14:25.531Z,18.89
2018-03-02T19:16:31.646Z,18.85
2018-03-02T19:18:37.208Z,18.72
2018-03-02T19:20:43.030Z,18.77
2018-03-02T19:22:49.856Z,18.76
2018-03-02T19:24:55.263Z,18.71
2018-03-02T19:27:02.457Z,18.74
2018-03-02T19:29:08.229Z,18.66
2018-03-02T19:31:13.825Z,18.76
2018-03-02T19:33:21.742Z,18.74
2018-03-02T19:35:27.589Z,18.72
2018-03-02T19:37:32.881Z,18.60
2018-03-02T19:39:39.155Z,18.64
2018-03-02T19:41:46.257Z,18.59
2018-03-02T19:43:52.958Z,18.66
2018-03-02T19:46:00.326Z,18.60
2018-03-02T19:48:06.280Z,18.65
2018-03-02T19:50:12.551Z,18.63
2018-03-02T19:52:18.687Z,18.63
2018-03-02T19:54:25.523Z,18.62
2018-03-02T19:56:31.482Z,18.56
2018-03-02T19:58:38.269Z,18.69
2018-03-02T20:00:45.364Z,18.67
2018-03-02T20:02:51.544Z,18.60
2018-03-02T20:04:59.359Z,18.66
2018-03-02T20:07:06.806Z,18.66
2018-03-02T20:09:13.421Z,18.57
2018-03-02T20:11:20.413Z,18.71
2018-03-02T20:13:26.097Z,18.87
2018-03-02T20:15:31.524Z,18.78
2018-03-02T20:17:37.332Z,18.74
2018-03-02T20:19:43.802Z,18.66
2018-03-02T20:21:49.350Z,18.73
2018-03-02T20:23:55.543Z,18.84
2018-03-02T20:26:02.357Z,18.79
2018-03-02T20:28:08.014Z,18.80
2018-03-02T20:30:14.687Z,18.83
2018-03-02T20:32:22.265Z,18.81
2018-03-02T20:34:36.257Z,18.83
2018-03-02T20:36:42.300Z,18.85
2018-03-02T20:38:47.958Z,18.93
2018-03-02T20:40:54.496Z,18.82
2018-03-02T20:43:01.909Z,18.92
2018-03-02T20:45:12.603Z,18.94
2018-03-02T20:47:18.310Z,18.90
2018-03-02T20:49:23.729Z,18.93
2018-03-02T20:51:29.558Z,18.85
2018-03-02T20:53:34.912Z,18.92
2018-03-02T20:55:41.068Z,18.85
2018-03-02T20:57:46.941Z,18.84
2018-03-02T20:59:52.495Z,18.81
2018-03-02T21:01:58.360Z,18.81
2018-03-02T21:04:05.070Z,18.77
2018-03-02T21:06:11.079Z,18.90
2018-03-02T21:08:36.076Z,18.79
2018-03-02T21:10:41.628Z,18.87
2018-03-02T21:12:47.095Z,18.85
2018-03-02T21:14:52.845Z,18.84
2018-03-02T21:16:59.091Z,18.89
2018-03-02T21:19:04.566Z,18.88
2018-03-02T21:21:09.800Z,18.91
2018-03-02T21:23:17.510Z,18.81
2018-03-02T21:25:22.911Z,18.87
2018-03-02T21:27:28.372Z,18.78
2018-03-02T21:29:33.998Z,18.84
2018-03-02T21:31:40.104Z,18.77
2018-03-02T21:33:45.518Z,18.87
2018-03-02T21:35:51.434Z,18.82
2018-03-02T21:37:56.743Z,18.92
2018-03-02T21:40:03.797Z,19.06
2018-03-02T21:42:09.540Z,19.00
2018-03-02T21:44:14.873Z,18.96
2018-03-02T21:46:20.285Z,18.94
2018-03-02T21:48:25.833Z,19.05
2018-03-02T21:50:31.179Z,18.94
2018-03-02T21:52:36.711Z,18.94
2018-03-02T21:54:42.904Z,18.94
2018-03-02T21:56:48.330Z,18.97
2018-03-02T21:58:54.377Z,18.94
2018-03-02T22:01:01.189Z,19.02
2018-03-02T22:03:07.914Z,18.93
2018-03-02T22:05:13.296Z,19.03
2018-03-02T22:07:18.947Z,18.95
2018-03-02T22:09:24.222Z,18.87
2018-03-02T22:11:29.485Z,18.82
2018-03-02T22:13:35.106Z,18.94
2018-03-02T22:15:40.306Z,18.92
2018-03-02T22:17:45.630Z,18.96
2018-03-02T22:19:51.148Z,18.93
2018-03-02T22:21:56.448Z,18.95
2018-03-02T22:24:02.152Z,18.98
2018-03-02T22:26:07.733Z,18.94
2018-03-02T22:28:13.018Z,18.87
2018-03-02T22:30:18.336Z,18.95
2018-03-02T22:32:23.823Z,18.94
2018-03-02T22:34:29.132Z,18.91
2018-03-02T22:36:34.392Z,18.98
2018-03-02T22:38:40.463Z,18.95
2018-03-02T22:40:45.766Z,18.90
2018-03-02T22:42:52.111Z,18.94
2018-03-02T22:44:57.696Z,18.96
2018-03-02T22:47:04.884Z,18.91
2018-03-02T22:49:10.974Z,18.85
2018-03-02T22:51:16.505Z,18.85
2018-03-02T22:53:21.844Z,18.87
2018-03-02T22:55:27.785Z,18.86
2018-03-02T22:57:33.764Z,18.82
2018-03-02T22:59:39.008Z,18.72
2018-03-02T23:01:44.432Z,18.75
2018-03-02T23:03:50.111Z,18.66
2018-03-02T23:05:55.456Z,18.78
2018-03-02T23:08:02.569Z,18.73
2018-03-02T23:10:08.152Z,18.77
2018-03-02T23:12:13.408Z,18.75
2018-03-02T23:14:18.752Z,18.62
2018-03-02T23:16:25.110Z,18.79
2018-03-02T23:18:30.980Z,18.85
2018-03-02T23:20:37.363Z,18.72
2018-03-02T23:22:44.005Z,18.75
2018-03-02T23:24:50.864Z,18.74
2018-03-02T23:27:01.308Z,18.86
2018-03-02T23:29:07.408Z,18.83
2018-03-02T23:31:12.727Z,18.90
2018-03-02T23:33:18.055Z,18.88
2018-03-02T23:35:23.704Z,18.83
2018-03-02T23:37:30.212Z,18.92
2018-03-02T23:39:39.312Z,18.94
2018-03-02T23:41:45.633Z,18.96
2018-03-02T23:43:56.241Z,18.84
2018-03-02T23:46:05.955Z,18.90
2018-03-02T23:48:42.970Z,18.85
2018-03-02T23:50:48.986Z,18.92
2018-03-02T23:55:05.924Z,18.86
2018-03-02T23:57:11.492Z,18.96
2018-03-02T23:59:16.997Z,18.89
